TIST/STT METAR and TAF weather

Enter ICAO airport designator
Station Type Date Time Source
TIST METAR 2018/12/19 09:53 UTC NOAA

TIST 190953Z AUTO 09006KT 10SM FEW075 24/21 A3001 RMK AO2 SLP164 T02390211


Station Type Date Time Source
TIST Decoded METAR 2018/12/19 09:53 UTC NOAA

Charlotte Amalie St. Thomas, Cyril E. King Airport, Virgin Islands (TIST) 18-20N 064-59W
Dec 19, 2018 - 04:53 AM EST / 2018.12.19 0953 UTC
Wind: from the E (090 degrees) at 7 MPH (6 KT):0
Visibility: 10 mile(s):0
Sky conditions: mostly clear
Temperature: 75.0 F (23.9 C)
Dew Point: 70.0 F (21.1 C)
Relative Humidity: 84%
Pressure (altimeter): 30.01 in. Hg (1016 hPa)
ob: TIST 190953Z AUTO 09006KT 10SM FEW075 24/21 A3001 RMK AO2 SLP164 T02390211
cycle: 10

Station Type Date Time Source
TIST TAF 2018/12/19 06:48 UTC NOAA

TAF TIST 190541Z 1906/2006 07004KT P6SM FEW030
FM191400 12010KT P6SM VCSH SCT025 SCT050
FM192300 07004KT P6SM FEW030


Example: see airport list